チタ の空港の天気 - METARとTAF

チタ・カダラ空港 ( UIAA / HTA ) - ロシア チタ
飛行場実況気象(Metar)
観測時間04/28 01:00 +09 (04/27 16:00 UTC)
風向・風速西北西 8m/s 瞬間風速13m/s
視程10km以上
天気現象
なし
気温11℃
湿度47%
気圧1010hPa
METARUIAA 271600Z 30008G13MPS 9999 NSC 11/M00 Q1010 R29/70D NOSIG RMK QFE699
過去の天気等 Google飛行場航空写真 Wunderground天気予報

過去48時間のMETAR

飛行場予報(TAF)
発表時間: 4/27 23:00 +09 (4/27 14:00 UTC)
予報対象時間: 28日0時 +09 ~ 29日0時 +09
風向・風速西北西 10m/s 瞬間風速 18m/s
視程10km以上
全天の8割程度の積乱雲 雲底高度 910m
TAF UIAA 271400Z 2715/2815 30010G18MPS 9999 BKN030CB